createdAt,value
2023-03-12T00:01:20.600Z,95.76
2023-03-12T00:03:51.118Z,95.55
2023-03-12T00:06:20.381Z,95.79
2023-03-12T00:08:49.395Z,95.47
2023-03-12T00:11:19.917Z,95.31
2023-03-12T00:13:50.922Z,95.28
2023-03-12T00:16:19.828Z,95.07
2023-03-12T00:18:51.282Z,94.95
2023-03-12T00:21:20.441Z,94.83
2023-03-12T00:23:49.361Z,94.51
2023-03-12T00:26:18.461Z,94.32
2023-03-12T00:28:48.294Z,94.02
2023-03-12T00:31:19.242Z,94.21
2023-03-12T00:33:49.400Z,94.02
2023-03-12T00:36:19.405Z,94.04
2023-03-12T00:38:47.531Z,94.24
2023-03-12T00:41:15.697Z,94.38
2023-03-12T00:43:43.938Z,94.44
2023-03-12T00:46:12.110Z,94.57
2023-03-12T00:48:41.061Z,94.51
2023-03-12T00:51:09.441Z,94.35
2023-03-12T00:53:39.264Z,94.49
2023-03-12T00:56:08.272Z,94.54
2023-03-12T00:58:36.540Z,94.50
2023-03-12T01:01:06.682Z,94.50
2023-03-12T01:03:34.888Z,94.51
2023-03-12T01:06:03.043Z,94.38
2023-03-12T01:08:31.322Z,94.63
2023-03-12T01:11:00.871Z,94.70
2023-03-12T01:13:29.067Z,94.77
2023-03-12T01:15:57.388Z,94.56
2023-03-12T01:18:25.551Z,94.41
2023-03-12T01:20:54.337Z,94.23
2023-03-12T01:23:22.852Z,94.11
2023-03-12T01:25:51.950Z,93.86
2023-03-12T01:28:21.447Z,93.73
2023-03-12T01:30:49.574Z,93.35
2023-03-12T01:33:18.434Z,93.04
2023-03-12T01:35:46.659Z,93.03
2023-03-12T01:38:18.169Z,92.88
2023-03-12T01:40:46.304Z,92.74
2023-03-12T01:43:31.382Z,92.90
2023-03-12T01:46:20.603Z,92.79
2023-03-12T01:48:52.423Z,92.74
2023-03-12T01:51:22.117Z,92.68
2023-03-12T01:53:54.212Z,92.59
2023-03-12T01:56:23.057Z,92.32
2023-03-12T01:58:55.580Z,91.91
2023-03-12T02:01:25.920Z,91.56
2023-03-12T02:03:57.118Z,91.50
2023-03-12T02:06:31.614Z,91.47
2023-03-12T02:09:02.303Z,91.70
2023-03-12T02:11:31.664Z,91.81
2023-03-12T02:14:02.323Z,91.74
2023-03-12T02:16:31.221Z,92.28
2023-03-12T02:19:02.560Z,92.55
2023-03-12T02:21:35.465Z,92.72
2023-03-12T02:24:09.233Z,92.84
2023-03-12T02:26:40.286Z,92.90
2023-03-12T02:29:10.740Z,93.26
2023-03-12T02:31:44.130Z,93.08
2023-03-12T02:34:12.380Z,92.88
2023-03-12T02:36:40.669Z,92.55
2023-03-12T02:39:08.816Z,92.67
2023-03-12T02:41:42.515Z,92.46
2023-03-12T02:44:13.768Z,92.65
2023-03-12T02:46:43.934Z,92.79
2023-03-12T02:49:13.525Z,92.87
2023-03-12T02:51:43.845Z,92.72
2023-03-12T02:54:13.326Z,93.02
2023-03-12T02:56:43.793Z,92.74
2023-03-12T02:59:13.363Z,92.71
2023-03-12T03:01:43.950Z,92.82
2023-03-12T03:04:13.517Z,93.31
2023-03-12T03:06:44.567Z,93.56
2023-03-12T03:09:13.192Z,93.88
2023-03-12T03:11:42.755Z,93.96
2023-03-12T03:14:11.607Z,94.10
2023-03-12T03:16:39.775Z,94.15
2023-03-12T03:19:08.055Z,94.62
2023-03-12T03:21:36.511Z,95.03
2023-03-12T03:24:05.729Z,95.27
2023-03-12T03:26:35.254Z,95.64
2023-03-12T03:29:05.035Z,95.33
2023-03-12T03:31:33.797Z,95.54
2023-03-12T03:34:02.274Z,95.69
2023-03-12T03:36:30.471Z,96.10
2023-03-12T03:39:05.164Z,96.27
2023-03-12T03:41:33.626Z,96.52
2023-03-12T03:44:01.818Z,96.45
2023-03-12T03:46:35.360Z,96.91
2023-03-12T03:49:07.295Z,97.11
2023-03-12T03:51:35.907Z,97.26
2023-03-12T03:54:08.912Z,97.41
2023-03-12T03:56:37.442Z,97.32
2023-03-12T03:59:07.049Z,97.57
2023-03-12T04:01:40.901Z,97.79
2023-03-12T04:04:09.054Z,98.26
2023-03-12T04:06:37.790Z,98.54
2023-03-12T04:09:05.971Z,98.61
2023-03-12T04:11:36.531Z,99.00
2023-03-12T04:14:06.458Z,99.28
2023-03-12T04:16:36.287Z,99.51
2023-03-12T04:19:06.698Z,99.54
2023-03-12T04:21:35.073Z,99.81
2023-03-12T04:24:03.642Z,99.75
2023-03-12T04:26:35.395Z,99.60
2023-03-12T04:29:05.911Z,100.00
2023-03-12T04:31:34.493Z,100.00
2023-03-12T04:34:02.897Z,100.00
2023-03-12T04:36:32.903Z,99.90
2023-03-12T04:39:02.073Z,99.75
2023-03-12T04:41:34.471Z,99.84
2023-03-12T04:44:07.580Z,99.66
2023-03-12T04:46:37.496Z,99.51
2023-03-12T04:49:06.443Z,99.51
2023-03-12T04:51:38.798Z,99.40
2023-03-12T04:54:07.673Z,99.23
2023-03-12T04:56:37.094Z,99.27
2023-03-12T04:59:06.200Z,99.31
2023-03-12T05:01:36.832Z,99.78
2023-03-12T05:04:09.930Z,99.97
2023-03-12T05:06:39.657Z,100.00
2023-03-12T05:09:08.483Z,100.00
2023-03-12T05:11:39.602Z,100.00
2023-03-12T05:14:08.518Z,100.00
2023-03-12T05:16:36.898Z,100.00
2023-03-12T05:19:05.649Z,100.00
2023-03-12T05:21:34.487Z,100.00
2023-03-12T05:24:04.745Z,100.00
2023-03-12T05:26:34.680Z,100.00
2023-03-12T05:29:11.870Z,100.00
2023-03-12T05:31:40.124Z,100.00
2023-03-12T05:34:12.641Z,100.00
2023-03-12T05:36:44.159Z,100.00
2023-03-12T05:39:15.359Z,100.00
2023-03-12T05:41:44.419Z,100.00
2023-03-12T05:44:17.314Z,100.00
2023-03-12T05:46:49.477Z,100.00
2023-03-12T05:49:18.729Z,100.00
2023-03-12T05:51:47.710Z,100.00
2023-03-12T05:54:18.532Z,100.00
2023-03-12T05:56:49.471Z,100.00
2023-03-12T05:59:24.730Z,100.00
2023-03-12T06:01:54.348Z,100.00
2023-03-12T06:04:22.612Z,100.00
2023-03-12T06:06:50.793Z,100.00
2023-03-12T06:09:20.451Z,100.00
2023-03-12T06:11:48.650Z,100.00
2023-03-12T06:14:17.057Z,100.00
2023-03-12T06:16:46.487Z,100.00
2023-03-12T06:19:14.990Z,100.00
2023-03-12T06:21:45.353Z,100.00
2023-03-12T06:24:14.326Z,100.00
2023-03-12T06:26:50.805Z,99.83
2023-03-12T06:29:18.959Z,99.86
2023-03-12T06:31:48.266Z,99.99
2023-03-12T06:34:16.851Z,100.00
2023-03-12T06:36:45.110Z,99.64
2023-03-12T06:39:13.237Z,99.34
2023-03-12T06:41:41.853Z,98.82
2023-03-12T06:44:11.372Z,98.30
2023-03-12T06:46:39.544Z,97.85
2023-03-12T06:49:07.797Z,97.62
2023-03-12T06:51:35.909Z,97.13
2023-03-12T06:54:04.365Z,96.72
2023-03-12T06:56:32.605Z,96.33
2023-03-12T06:59:00.807Z,95.97
2023-03-12T07:01:30.305Z,95.56
2023-03-12T07:03:58.578Z,95.42
2023-03-12T07:06:26.883Z,95.23
2023-03-12T07:08:55.206Z,94.59
2023-03-12T07:11:23.471Z,94.39
2023-03-12T07:13:52.270Z,94.17
2023-03-12T07:16:20.454Z,93.81
2023-03-12T07:18:50.011Z,93.38
2023-03-12T07:21:22.732Z,93.19
2023-03-12T07:23:51.450Z,92.52
2023-03-12T07:26:20.074Z,91.76
2023-03-12T07:28:48.351Z,91.41
2023-03-12T07:31:16.500Z,91.34
2023-03-12T07:33:44.761Z,90.58
2023-03-12T07:36:14.401Z,90.36
2023-03-12T07:38:42.649Z,89.83
2023-03-12T07:41:10.906Z,89.03
2023-03-12T07:43:39.258Z,89.16
2023-03-12T07:46:07.406Z,89.14
2023-03-12T07:48:35.850Z,88.24
2023-03-12T07:51:04.201Z,87.75
2023-03-12T07:53:33.759Z,87.29
2023-03-12T07:56:02.102Z,87.56
2023-03-12T07:58:30.326Z,86.95
2023-03-12T08:00:58.526Z,86.50
2023-03-12T08:03:27.008Z,86.52
2023-03-12T08:06:00.730Z,86.24
2023-03-12T08:08:31.048Z,86.11
2023-03-12T08:11:01.238Z,85.87
2023-03-12T08:13:29.581Z,85.80
2023-03-12T08:15:57.807Z,85.58
2023-03-12T08:18:26.678Z,85.00
2023-03-12T08:20:55.748Z,84.15
2023-03-12T08:23:23.947Z,83.94
2023-03-12T08:25:52.257Z,83.33
2023-03-12T08:28:23.353Z,82.57
2023-03-12T08:30:53.291Z,83.02
2023-03-12T08:33:22.195Z,82.60
2023-03-12T08:35:50.979Z,81.84
2023-03-12T08:38:19.233Z,81.42
2023-03-12T08:40:47.379Z,81.50
2023-03-12T08:43:15.525Z,81.67
2023-03-12T08:45:45.037Z,80.98
2023-03-12T08:48:13.198Z,80.12
2023-03-12T08:50:41.398Z,80.42
2023-03-12T08:53:09.518Z,80.01
2023-03-12T08:55:37.636Z,79.34
2023-03-12T08:58:05.844Z,78.81
2023-03-12T09:00:34.250Z,78.30
2023-03-12T09:03:03.791Z,78.35
2023-03-12T09:05:32.288Z,78.41
2023-03-12T09:08:00.421Z,77.64
2023-03-12T09:10:30.885Z,75.92
2023-03-12T09:12:59.369Z,75.06
2023-03-12T09:15:27.894Z,75.01
2023-03-12T09:17:56.594Z,74.59
2023-03-12T09:20:26.682Z,73.66
2023-03-12T09:22:54.859Z,72.99
2023-03-12T09:25:23.409Z,73.56
2023-03-12T09:27:51.586Z,73.26
2023-03-12T09:30:21.326Z,73.02
2023-03-12T09:32:49.601Z,73.61
2023-03-12T09:35:17.797Z,72.35
2023-03-12T09:37:51.300Z,71.99
2023-03-12T09:40:22.803Z,70.56
2023-03-12T09:42:56.539Z,70.54
2023-03-12T09:45:27.352Z,70.92
2023-03-12T09:47:57.722Z,70.04
2023-03-12T09:50:29.490Z,69.47
2023-03-12T09:53:02.685Z,68.33
2023-03-12T09:55:37.924Z,69.18
2023-03-12T09:58:14.387Z,69.80
2023-03-12T10:00:42.618Z,70.78
2023-03-12T10:03:30.981Z,69.86
2023-03-12T10:06:11.863Z,68.74
2023-03-12T10:08:54.476Z,68.06
2023-03-12T10:11:36.560Z,68.75
2023-03-12T10:14:23.931Z,69.17
2023-03-12T10:17:15.944Z,69.36
2023-03-12T10:20:00.819Z,69.91
2023-03-12T10:22:45.728Z,69.73
2023-03-12T10:25:23.331Z,70.20
2023-03-12T10:27:51.784Z,70.16
2023-03-12T10:30:24.009Z,69.89
2023-03-12T10:32:56.689Z,69.82
2023-03-12T10:35:26.620Z,68.26
2023-03-12T10:37:58.248Z,68.26
2023-03-12T10:40:29.797Z,66.88
2023-03-12T10:42:58.459Z,67.17
2023-03-12T10:45:32.964Z,67.18
2023-03-12T10:48:06.353Z,66.18
2023-03-12T10:50:36.390Z,67.32
2023-03-12T10:53:22.559Z,66.95
2023-03-12T10:56:05.092Z,67.10
2023-03-12T10:58:36.198Z,67.61
2023-03-12T11:01:07.293Z,67.42
2023-03-12T11:03:35.494Z,66.83
2023-03-12T11:06:07.429Z,66.77
2023-03-12T11:08:36.656Z,67.27
2023-03-12T11:11:06.647Z,67.02
2023-03-12T11:13:43.126Z,66.28
2023-03-12T11:16:30.054Z,66.40
2023-03-12T11:19:03.686Z,66.57
2023-03-12T11:21:35.310Z,65.38
2023-03-12T11:24:09.497Z,64.84
2023-03-12T11:26:51.342Z,65.55
2023-03-12T11:29:28.083Z,64.93
2023-03-12T11:32:03.234Z,63.60
2023-03-12T11:34:34.525Z,64.71
2023-03-12T11:37:11.709Z,64.93
2023-03-12T11:39:59.494Z,65.67
2023-03-12T11:42:52.071Z,65.41
2023-03-12T11:45:30.244Z,66.07
2023-03-12T11:48:11.785Z,65.69
2023-03-12T11:51:04.787Z,65.81
2023-03-12T11:53:47.965Z,65.20
2023-03-12T11:56:27.070Z,64.25
2023-03-12T11:59:10.860Z,65.15
2023-03-12T12:01:53.969Z,63.01
2023-03-12T12:04:51.988Z,62.91
2023-03-12T12:07:47.060Z,63.08
2023-03-12T12:10:25.746Z,62.01
2023-03-12T12:13:14.104Z,63.13
2023-03-12T12:16:03.114Z,63.79
2023-03-12T12:18:56.380Z,62.04
2023-03-12T12:21:39.835Z,62.18
2023-03-12T12:24:22.879Z,60.89
2023-03-12T12:27:00.586Z,60.71
2023-03-12T12:29:47.955Z,61.54
2023-03-12T12:32:30.490Z,60.04
2023-03-12T12:35:09.007Z,60.34
2023-03-12T12:37:54.545Z,60.11
2023-03-12T12:40:29.151Z,60.15
2023-03-12T12:43:05.560Z,59.70
2023-03-12T12:45:33.865Z,59.85
2023-03-12T12:48:09.221Z,58.71
2023-03-12T12:50:40.868Z,57.29
2023-03-12T12:53:22.225Z,57.89
2023-03-12T12:55:58.190Z,56.98
2023-03-12T12:58:40.164Z,57.50
2023-03-12T13:01:10.623Z,58.23
2023-03-12T13:03:40.324Z,57.18
2023-03-12T13:06:11.208Z,57.01
2023-03-12T13:09:16.142Z,56.65
2023-03-12T13:11:47.808Z,56.25
2023-03-12T13:14:39.453Z,55.76
2023-03-12T13:17:25.739Z,55.94
2023-03-12T13:20:01.968Z,56.79
2023-03-12T13:22:50.357Z,55.56
2023-03-12T13:25:31.822Z,55.84
2023-03-12T13:28:19.796Z,56.65
2023-03-12T13:30:50.571Z,55.43
2023-03-12T13:33:24.448Z,55.60
2023-03-12T13:36:23.954Z,55.14
2023-03-12T13:38:58.765Z,54.63
2023-03-12T13:41:36.242Z,54.02
2023-03-12T13:44:33.040Z,54.00
2023-03-12T13:47:03.418Z,52.96
2023-03-12T13:49:38.454Z,52.32
2023-03-12T13:52:20.807Z,52.97
2023-03-12T13:54:58.324Z,52.21
2023-03-12T13:57:32.893Z,52.68
2023-03-12T14:00:01.607Z,51.40
2023-03-12T14:02:39.644Z,51.20
2023-03-12T14:05:10.641Z,50.33
2023-03-12T14:08:10.049Z,49.17
2023-03-12T14:10:50.876Z,47.60
2023-03-12T14:13:47.390Z,48.04
2023-03-12T14:16:24.859Z,48.59
2023-03-12T14:18:54.285Z,48.70
2023-03-12T14:21:24.672Z,48.91
2023-03-12T14:23:57.911Z,49.53
2023-03-12T14:26:28.921Z,50.52
2023-03-12T14:29:01.542Z,50.90
2023-03-12T14:31:31.144Z,50.56
2023-03-12T14:34:03.123Z,51.41
2023-03-12T14:36:39.844Z,52.57
2023-03-12T14:39:23.742Z,52.35
2023-03-12T14:41:57.190Z,51.62
2023-03-12T14:44:27.114Z,53.28
2023-03-12T14:47:00.674Z,54.33
2023-03-12T14:49:30.015Z,54.62
2023-03-12T14:51:58.291Z,53.73
2023-03-12T14:54:29.558Z,53.44
2023-03-12T14:56:57.751Z,54.06
2023-03-12T14:59:29.301Z,54.62
2023-03-12T15:02:02.131Z,54.12
2023-03-12T15:04:32.242Z,54.85
2023-03-12T15:07:04.509Z,55.72
2023-03-12T15:09:36.750Z,55.90
2023-03-12T15:12:07.066Z,56.10
2023-03-12T15:14:40.111Z,55.67
2023-03-12T15:17:09.333Z,55.58
2023-03-12T15:19:40.853Z,54.90
2023-03-12T15:22:14.852Z,56.17
2023-03-12T15:24:44.730Z,56.04
2023-03-12T15:27:32.058Z,55.38
2023-03-12T15:30:01.861Z,54.77
2023-03-12T15:32:31.880Z,55.07
2023-03-12T15:35:00.809Z,55.12
2023-03-12T15:37:35.189Z,55.55
2023-03-12T15:40:10.670Z,55.87
2023-03-12T15:42:41.981Z,55.64
2023-03-12T15:45:19.654Z,56.44
2023-03-12T15:47:48.677Z,56.72
2023-03-12T15:50:21.400Z,56.80
2023-03-12T15:53:05.916Z,56.81
2023-03-12T15:55:36.707Z,57.64
2023-03-12T15:58:26.927Z,56.91
2023-03-12T16:00:55.546Z,56.35
2023-03-12T16:03:23.753Z,57.46
2023-03-12T16:05:51.989Z,57.43
2023-03-12T16:08:22.594Z,57.81
2023-03-12T16:10:53.071Z,58.41
2023-03-12T16:13:26.527Z,58.05
2023-03-12T16:15:55.246Z,57.79
2023-03-12T16:18:23.966Z,58.04
2023-03-12T16:20:54.013Z,57.75
2023-03-12T16:23:22.255Z,57.90
2023-03-12T16:25:55.171Z,58.87
2023-03-12T16:28:24.837Z,59.46
2023-03-12T16:30:53.516Z,60.01
2023-03-12T16:33:24.420Z,61.05
2023-03-12T16:35:53.519Z,61.23
2023-03-12T16:38:21.863Z,62.58
2023-03-12T16:40:51.578Z,62.83
2023-03-12T16:43:23.295Z,63.62
2023-03-12T16:45:54.046Z,65.19
2023-03-12T16:48:26.342Z,66.88
2023-03-12T16:50:56.909Z,66.76
2023-03-12T16:53:26.122Z,66.63
2023-03-12T16:55:56.517Z,67.10
2023-03-12T16:58:27.059Z,67.16
2023-03-12T17:00:56.070Z,68.05
2023-03-12T17:03:33.341Z,69.17
2023-03-12T17:06:03.048Z,69.89
2023-03-12T17:08:31.192Z,70.43
2023-03-12T17:11:00.852Z,70.93
2023-03-12T17:13:30.686Z,71.34
2023-03-12T17:15:58.860Z,70.74
2023-03-12T17:18:26.958Z,71.20
2023-03-12T17:20:55.631Z,71.11
2023-03-12T17:23:24.625Z,71.44
2023-03-12T17:25:52.821Z,72.01
2023-03-12T17:28:21.320Z,72.22
2023-03-12T17:30:50.952Z,72.18
2023-03-12T17:33:20.100Z,72.22
2023-03-12T17:35:58.818Z,71.97
2023-03-12T17:38:27.819Z,71.71
2023-03-12T17:40:55.961Z,71.88
2023-03-12T17:43:24.419Z,72.29
2023-03-12T17:45:53.898Z,72.17
2023-03-12T17:48:23.360Z,72.28
2023-03-12T17:50:51.549Z,72.96
2023-03-12T17:53:19.682Z,73.19
2023-03-12T17:55:48.392Z,73.32
2023-03-12T17:58:16.748Z,73.27
2023-03-12T18:00:44.885Z,73.84
2023-03-12T18:03:14.428Z,74.37
2023-03-12T18:05:43.096Z,74.45
2023-03-12T18:08:11.302Z,74.41
2023-03-12T18:10:40.565Z,74.61
2023-03-12T18:13:09.195Z,74.94
2023-03-12T18:15:37.483Z,75.43
2023-03-12T18:18:05.877Z,75.61
2023-03-12T18:20:39.709Z,76.76
2023-03-12T18:23:08.112Z,77.66
2023-03-12T18:25:38.274Z,79.16
2023-03-12T18:28:06.923Z,79.44
2023-03-12T18:30:35.194Z,81.11
2023-03-12T18:33:04.436Z,83.81
2023-03-12T18:35:32.622Z,86.05
2023-03-12T18:38:03.094Z,88.23
2023-03-12T18:40:32.969Z,90.22
2023-03-12T18:43:02.663Z,92.23
2023-03-12T18:45:31.274Z,93.16
2023-03-12T18:47:59.509Z,94.14
2023-03-12T18:50:27.959Z,95.48
2023-03-12T18:52:56.143Z,97.01
2023-03-12T18:55:25.656Z,98.31
2023-03-12T18:57:54.236Z,99.74
2023-03-12T19:00:22.663Z,100.00
2023-03-12T19:02:50.843Z,100.00
2023-03-12T19:05:19.238Z,100.00
2023-03-12T19:07:47.443Z,100.00
2023-03-12T19:10:16.430Z,100.00
2023-03-12T19:12:52.650Z,100.00
2023-03-12T19:15:23.932Z,100.00
2023-03-12T19:17:52.603Z,100.00
2023-03-12T19:20:21.227Z,100.00
2023-03-12T19:22:49.493Z,100.00
2023-03-12T19:25:18.354Z,100.00
2023-03-12T19:27:47.966Z,100.00
2023-03-12T19:30:16.605Z,100.00
2023-03-12T19:32:45.008Z,100.00
2023-03-12T19:35:15.203Z,100.00
2023-03-12T19:37:43.778Z,100.00
2023-03-12T19:40:13.361Z,100.00
2023-03-12T19:42:41.713Z,100.00
2023-03-12T19:45:12.100Z,100.00
2023-03-12T19:47:40.237Z,100.00
2023-03-12T19:50:09.499Z,100.00
2023-03-12T19:52:37.857Z,100.00
2023-03-12T19:55:06.685Z,100.00
2023-03-12T19:57:35.060Z,100.00
2023-03-12T20:00:07.043Z,100.00
2023-03-12T20:02:37.308Z,100.00
2023-03-12T20:05:07.102Z,100.00
2023-03-12T20:07:35.391Z,100.00
2023-03-12T20:10:04.059Z,100.00
2023-03-12T20:12:32.230Z,100.00
2023-03-12T20:15:00.353Z,100.00
2023-03-12T20:17:28.477Z,100.00
2023-03-12T20:19:58.193Z,100.00
2023-03-12T20:22:26.424Z,100.00
2023-03-12T20:24:55.054Z,100.00
2023-03-12T20:27:23.209Z,100.00
2023-03-12T20:29:51.401Z,100.00
2023-03-12T20:32:19.723Z,100.00
2023-03-12T20:34:47.948Z,100.00
2023-03-12T20:37:19.310Z,100.00
2023-03-12T20:39:47.471Z,100.00
2023-03-12T20:42:15.741Z,100.00
2023-03-12T20:44:43.968Z,100.00
2023-03-12T20:47:12.191Z,100.00
2023-03-12T20:49:40.372Z,100.00
2023-03-12T20:52:08.553Z,100.00
2023-03-12T20:54:38.034Z,100.00
2023-03-12T20:57:06.176Z,100.00
2023-03-12T20:59:34.336Z,100.00
2023-03-12T21:02:02.523Z,100.00
2023-03-12T21:04:30.780Z,100.00
2023-03-12T21:06:59.099Z,100.00
2023-03-12T21:09:27.372Z,100.00
2023-03-12T21:11:57.000Z,100.00
2023-03-12T21:14:25.200Z,100.00
2023-03-12T21:16:53.483Z,100.00
2023-03-12T21:19:24.626Z,100.00
2023-03-12T21:21:52.804Z,100.00
2023-03-12T21:24:20.951Z,100.00
2023-03-12T21:26:49.137Z,100.00
2023-03-12T21:29:18.692Z,100.00
2023-03-12T21:31:46.924Z,100.00
2023-03-12T21:34:15.079Z,100.00
2023-03-12T21:36:43.282Z,100.00
2023-03-12T21:39:11.438Z,100.00
2023-03-12T21:41:39.904Z,100.00
2023-03-12T21:44:08.295Z,100.00
2023-03-12T21:46:37.801Z,100.00
2023-03-12T21:49:06.090Z,100.00
2023-03-12T21:51:34.195Z,100.00
2023-03-12T21:54:02.386Z,100.00
2023-03-12T21:56:30.520Z,100.00
2023-03-12T21:58:59.386Z,100.00
2023-03-12T22:01:27.939Z,100.00
2023-03-12T22:03:57.480Z,100.00
2023-03-12T22:06:25.851Z,100.00
2023-03-12T22:08:55.319Z,100.00
2023-03-12T22:11:23.899Z,100.00
2023-03-12T22:13:52.377Z,100.00
2023-03-12T22:16:20.856Z,100.00
2023-03-12T22:18:49.055Z,100.00
2023-03-12T22:21:21.008Z,100.00
2023-03-12T22:23:51.148Z,100.00
2023-03-12T22:26:20.522Z,100.00
2023-03-12T22:28:50.657Z,100.00
2023-03-12T22:31:19.780Z,100.00
2023-03-12T22:33:48.417Z,100.00
2023-03-12T22:36:18.738Z,100.00
2023-03-12T22:38:47.659Z,100.00
2023-03-12T22:41:17.922Z,100.00
2023-03-12T22:43:47.145Z,100.00
2023-03-12T22:46:17.030Z,100.00
2023-03-12T22:48:45.984Z,100.00
2023-03-12T22:51:14.396Z,100.00
2023-03-12T22:53:43.900Z,100.00
2023-03-12T22:56:14.015Z,100.00
2023-03-12T22:58:42.453Z,100.00
2023-03-12T23:01:12.721Z,100.00
2023-03-12T23:03:43.025Z,100.00
2023-03-12T23:06:12.660Z,100.00
2023-03-12T23:08:41.007Z,100.00
2023-03-12T23:11:11.962Z,100.00
2023-03-12T23:13:42.548Z,100.00
2023-03-12T23:16:12.805Z,100.00
2023-03-12T23:18:41.693Z,100.00
2023-03-12T23:21:11.819Z,100.00
2023-03-12T23:23:42.131Z,100.00
2023-03-12T23:26:14.729Z,100.00
2023-03-12T23:28:43.055Z,100.00
2023-03-12T23:31:11.797Z,100.00
2023-03-12T23:33:40.019Z,100.00
2023-03-12T23:36:11.654Z,100.00
2023-03-12T23:38:40.415Z,100.00
2023-03-12T23:41:12.120Z,100.00
2023-03-12T23:43:40.705Z,100.00
2023-03-12T23:46:10.388Z,100.00
2023-03-12T23:48:40.878Z,100.00
2023-03-12T23:51:10.747Z,100.00
2023-03-12T23:53:40.267Z,100.00
2023-03-12T23:56:11.946Z,100.00
2023-03-12T23:58:40.386Z,100.00
